sensor_id;sensor_type;location;lat;lon;timestamp;temperature;humidity
57390;DHT22;43217;52.694;6.214;2023-12-29T00:01:54;10.00;99.90
57390;DHT22;43217;52.694;6.214;2023-12-29T00:04:20;10.00;99.90
57390;DHT22;43217;52.694;6.214;2023-12-29T00:06:45;10.00;99.90
57390;DHT22;43217;52.694;6.214;2023-12-29T00:09:11;10.00;99.90
57390;DHT22;43217;52.694;6.214;2023-12-29T00:11:38;9.90;99.90
57390;DHT22;43217;52.694;6.214;2023-12-29T00:14:04;9.90;99.90
57390;DHT22;43217;52.694;6.214;2023-12-29T00:16:29;9.80;99.90
57390;DHT22;43217;52.694;6.214;2023-12-29T00:18:55;9.80;99.90
57390;DHT22;43217;52.694;6.214;2023-12-29T00:21:20;9.70;99.90
57390;DHT22;43217;52.694;6.214;2023-12-29T00:23:47;9.70;99.90
57390;DHT22;43217;52.694;6.214;2023-12-29T00:26:16;9.70;99.90
57390;DHT22;43217;52.694;6.214;2023-12-29T00:28:42;9.70;99.90
57390;DHT22;43217;52.694;6.214;2023-12-29T00:31:08;9.60;99.90
57390;DHT22;43217;52.694;6.214;2023-12-29T00:33:33;9.60;99.90
57390;DHT22;43217;52.694;6.214;2023-12-29T00:35:59;9.70;99.90
57390;DHT22;43217;52.694;6.214;2023-12-29T00:38:26;9.70;99.90
57390;DHT22;43217;52.694;6.214;2023-12-29T00:40:53;9.60;99.90
57390;DHT22;43217;52.694;6.214;2023-12-29T00:43:18;9.60;99.90
57390;DHT22;43217;52.694;6.214;2023-12-29T00:45:44;9.60;99.90
57390;DHT22;43217;52.694;6.214;2023-12-29T00:48:09;9.70;99.90
57390;DHT22;43217;52.694;6.214;2023-12-29T00:50:35;9.60;99.90
57390;DHT22;43217;52.694;6.214;2023-12-29T00:53:00;9.60;99.90
57390;DHT22;43217;52.694;6.214;2023-12-29T00:55:26;9.60;99.90
57390;DHT22;43217;52.694;6.214;2023-12-29T00:57:52;9.60;99.90
57390;DHT22;43217;52.694;6.214;2023-12-29T01:00:17;9.60;99.90
57390;DHT22;43217;52.694;6.214;2023-12-29T01:02:43;9.50;99.90
57390;DHT22;43217;52.694;6.214;2023-12-29T01:05:08;9.50;99.90
57390;DHT22;43217;52.694;6.214;2023-12-29T01:07:34;9.50;99.90
57390;DHT22;43217;52.694;6.214;2023-12-29T01:09:59;9.50;99.90
57390;DHT22;43217;52.694;6.214;2023-12-29T01:12:26;9.50;99.90
57390;DHT22;43217;52.694;6.214;2023-12-29T01:14:51;9.50;99.90
57390;DHT22;43217;52.694;6.214;2023-12-29T01:17:17;9.50;99.90
57390;DHT22;43217;52.694;6.214;2023-12-29T01:19:43;9.50;99.90
57390;DHT22;43217;52.694;6.214;2023-12-29T01:22:08;9.60;99.90
57390;DHT22;43217;52.694;6.214;2023-12-29T01:24:34;9.60;99.90
57390;DHT22;43217;52.694;6.214;2023-12-29T01:26:59;9.60;99.90
57390;DHT22;43217;52.694;6.214;2023-12-29T01:29:25;9.70;99.90
57390;DHT22;43217;52.694;6.214;2023-12-29T01:31:50;9.70;99.90
57390;DHT22;43217;52.694;6.214;2023-12-29T01:34:16;9.60;99.90
57390;DHT22;43217;52.694;6.214;2023-12-29T01:36:41;9.70;99.90
57390;DHT22;43217;52.694;6.214;2023-12-29T01:39:07;9.70;99.90
57390;DHT22;43217;52.694;6.214;2023-12-29T01:41:33;9.70;99.90
57390;DHT22;43217;52.694;6.214;2023-12-29T01:46:29;9.60;99.90
57390;DHT22;43217;52.694;6.214;2023-12-29T01:48:55;9.70;99.90
57390;DHT22;43217;52.694;6.214;2023-12-29T01:51:22;9.70;99.90
57390;DHT22;43217;52.694;6.214;2023-12-29T01:53:49;9.60;99.90
57390;DHT22;43217;52.694;6.214;2023-12-29T01:56:15;9.70;99.90
57390;DHT22;43217;52.694;6.214;2023-12-29T01:58:40;9.70;99.90
57390;DHT22;43217;52.694;6.214;2023-12-29T02:01:07;9.70;99.90
57390;DHT22;43217;52.694;6.214;2023-12-29T02:03:34;9.70;99.90
57390;DHT22;43217;52.694;6.214;2023-12-29T02:06:00;9.70;99.90
57390;DHT22;43217;52.694;6.214;2023-12-29T02:08:26;9.70;99.90
57390;DHT22;43217;52.694;6.214;2023-12-29T02:10:51;9.70;99.90
57390;DHT22;43217;52.694;6.214;2023-12-29T02:13:17;9.70;99.90
57390;DHT22;43217;52.694;6.214;2023-12-29T02:15:43;9.80;99.90
57390;DHT22;43217;52.694;6.214;2023-12-29T02:18:14;9.80;99.90
57390;DHT22;43217;52.694;6.214;2023-12-29T02:20:42;9.80;99.90
57390;DHT22;43217;52.694;6.214;2023-12-29T02:23:07;9.80;99.90
57390;DHT22;43217;52.694;6.214;2023-12-29T02:25:34;9.80;99.90
57390;DHT22;43217;52.694;6.214;2023-12-29T02:28:08;9.80;99.90
57390;DHT22;43217;52.694;6.214;2023-12-29T02:30:44;9.90;99.90
57390;DHT22;43217;52.694;6.214;2023-12-29T02:33:16;9.90;99.90
57390;DHT22;43217;52.694;6.214;2023-12-29T02:35:43;9.90;99.90
57390;DHT22;43217;52.694;6.214;2023-12-29T02:38:11;9.80;99.90
57390;DHT22;43217;52.694;6.214;2023-12-29T02:40:38;9.90;99.90
57390;DHT22;43217;52.694;6.214;2023-12-29T02:43:03;9.90;99.90
57390;DHT22;43217;52.694;6.214;2023-12-29T02:45:29;9.90;99.90
57390;DHT22;43217;52.694;6.214;2023-12-29T02:47:55;9.90;99.90
57390;DHT22;43217;52.694;6.214;2023-12-29T02:50:20;9.90;99.90
57390;DHT22;43217;52.694;6.214;2023-12-29T02:52:46;10.00;99.90
57390;DHT22;43217;52.694;6.214;2023-12-29T02:55:11;10.00;99.90
57390;DHT22;43217;52.694;6.214;2023-12-29T02:57:38;9.90;99.90
57390;DHT22;43217;52.694;6.214;2023-12-29T03:00:05;9.90;99.90
57390;DHT22;43217;52.694;6.214;2023-12-29T03:02:30;9.90;99.90
57390;DHT22;43217;52.694;6.214;2023-12-29T03:04:56;9.80;99.90
57390;DHT22;43217;52.694;6.214;2023-12-29T03:07:22;9.70;99.90
57390;DHT22;43217;52.694;6.214;2023-12-29T03:09:47;9.70;99.90
57390;DHT22;43217;52.694;6.214;2023-12-29T03:12:13;9.60;99.90
57390;DHT22;43217;52.694;6.214;2023-12-29T03:14:38;9.60;99.90
57390;DHT22;43217;52.694;6.214;2023-12-29T03:17:04;9.50;99.90
57390;DHT22;43217;52.694;6.214;2023-12-29T03:19:29;9.50;99.90
57390;DHT22;43217;52.694;6.214;2023-12-29T03:21:55;9.40;99.90
57390;DHT22;43217;52.694;6.214;2023-12-29T03:24:21;9.40;99.90
57390;DHT22;43217;52.694;6.214;2023-12-29T03:26:46;9.40;99.90
57390;DHT22;43217;52.694;6.214;2023-12-29T03:29:12;9.40;99.90
57390;DHT22;43217;52.694;6.214;2023-12-29T03:31:37;9.40;99.90
57390;DHT22;43217;52.694;6.214;2023-12-29T03:34:04;9.40;99.90
57390;DHT22;43217;52.694;6.214;2023-12-29T03:36:30;9.40;99.90
57390;DHT22;43217;52.694;6.214;2023-12-29T03:38:56;9.40;99.90
57390;DHT22;43217;52.694;6.214;2023-12-29T03:41:21;9.40;99.90
57390;DHT22;43217;52.694;6.214;2023-12-29T03:43:47;9.40;99.90
57390;DHT22;43217;52.694;6.214;2023-12-29T03:46:19;9.50;99.90
57390;DHT22;43217;52.694;6.214;2023-12-29T03:48:46;9.50;99.90
57390;DHT22;43217;52.694;6.214;2023-12-29T03:51:12;9.50;99.90
57390;DHT22;43217;52.694;6.214;2023-12-29T03:53:38;9.60;99.90
57390;DHT22;43217;52.694;6.214;2023-12-29T03:56:15;9.60;99.90
57390;DHT22;43217;52.694;6.214;2023-12-29T03:58:44;9.60;99.90
57390;DHT22;43217;52.694;6.214;2023-12-29T04:01:10;9.60;99.90
57390;DHT22;43217;52.694;6.214;2023-12-29T04:03:37;9.60;99.90
57390;DHT22;43217;52.694;6.214;2023-12-29T04:06:02;9.50;99.90
57390;DHT22;43217;52.694;6.214;2023-12-29T04:08:28;9.50;99.90
57390;DHT22;43217;52.694;6.214;2023-12-29T04:10:54;9.50;99.90
57390;DHT22;43217;52.694;6.214;2023-12-29T04:13:19;9.40;99.90
57390;DHT22;43217;52.694;6.214;2023-12-29T04:15:45;9.40;99.90
57390;DHT22;43217;52.694;6.214;2023-12-29T04:18:10;9.40;99.90
57390;DHT22;43217;52.694;6.214;2023-12-29T04:20:36;9.40;99.90
57390;DHT22;43217;52.694;6.214;2023-12-29T04:23:02;9.40;99.90
57390;DHT22;43217;52.694;6.214;2023-12-29T04:25:28;9.40;99.90
57390;DHT22;43217;52.694;6.214;2023-12-29T04:27:53;9.40;99.90
57390;DHT22;43217;52.694;6.214;2023-12-29T04:30:19;9.40;99.90
57390;DHT22;43217;52.694;6.214;2023-12-29T04:32:45;9.40;99.90
57390;DHT22;43217;52.694;6.214;2023-12-29T04:35:10;9.30;99.90
57390;DHT22;43217;52.694;6.214;2023-12-29T04:37:38;9.30;99.90
57390;DHT22;43217;52.694;6.214;2023-12-29T04:40:04;9.30;99.90
57390;DHT22;43217;52.694;6.214;2023-12-29T04:42:30;9.30;99.90
57390;DHT22;43217;52.694;6.214;2023-12-29T04:44:56;9.30;99.90
57390;DHT22;43217;52.694;6.214;2023-12-29T04:47:21;9.30;99.90
57390;DHT22;43217;52.694;6.214;2023-12-29T04:49:47;9.30;99.90
57390;DHT22;43217;52.694;6.214;2023-12-29T04:52:12;9.30;99.90
57390;DHT22;43217;52.694;6.214;2023-12-29T04:54:38;9.30;99.90
57390;DHT22;43217;52.694;6.214;2023-12-29T04:57:04;9.30;99.90
57390;DHT22;43217;52.694;6.214;2023-12-29T04:59:29;9.30;99.90
57390;DHT22;43217;52.694;6.214;2023-12-29T05:01:55;9.30;99.90
57390;DHT22;43217;52.694;6.214;2023-12-29T05:04:21;9.30;99.90
57390;DHT22;43217;52.694;6.214;2023-12-29T05:06:46;9.30;99.90
57390;DHT22;43217;52.694;6.214;2023-12-29T05:09:12;9.30;99.90
57390;DHT22;43217;52.694;6.214;2023-12-29T05:11:38;9.30;99.90
57390;DHT22;43217;52.694;6.214;2023-12-29T05:14:04;9.30;99.90
57390;DHT22;43217;52.694;6.214;2023-12-29T05:16:29;9.30;99.90
57390;DHT22;43217;52.694;6.214;2023-12-29T05:18:55;9.30;99.90
57390;DHT22;43217;52.694;6.214;2023-12-29T05:21:21;9.30;99.90
57390;DHT22;43217;52.694;6.214;2023-12-29T05:23:47;9.30;99.90
57390;DHT22;43217;52.694;6.214;2023-12-29T05:26:14;9.30;99.90
57390;DHT22;43217;52.694;6.214;2023-12-29T05:28:40;9.30;99.90
57390;DHT22;43217;52.694;6.214;2023-12-29T05:31:05;9.30;99.90
57390;DHT22;43217;52.694;6.214;2023-12-29T05:33:32;9.30;99.90
57390;DHT22;43217;52.694;6.214;2023-12-29T05:35:58;9.30;99.90
57390;DHT22;43217;52.694;6.214;2023-12-29T05:38:24;9.30;99.90
57390;DHT22;43217;52.694;6.214;2023-12-29T05:40:50;9.30;99.90
57390;DHT22;43217;52.694;6.214;2023-12-29T05:43:16;9.30;99.90
57390;DHT22;43217;52.694;6.214;2023-12-29T05:45:42;9.30;99.90
57390;DHT22;43217;52.694;6.214;2023-12-29T05:48:07;9.30;99.90
57390;DHT22;43217;52.694;6.214;2023-12-29T05:50:33;9.30;99.90
57390;DHT22;43217;52.694;6.214;2023-12-29T05:52:59;9.30;99.90
57390;DHT22;43217;52.694;6.214;2023-12-29T05:55:24;9.30;99.90
57390;DHT22;43217;52.694;6.214;2023-12-29T05:57:50;9.30;99.90
57390;DHT22;43217;52.694;6.214;2023-12-29T06:00:16;9.40;99.90
57390;DHT22;43217;52.694;6.214;2023-12-29T06:02:42;9.40;99.90
57390;DHT22;43217;52.694;6.214;2023-12-29T06:05:10;9.40;99.90
57390;DHT22;43217;52.694;6.214;2023-12-29T06:07:36;9.40;99.90
57390;DHT22;43217;52.694;6.214;2023-12-29T06:10:02;9.40;99.90
57390;DHT22;43217;52.694;6.214;2023-12-29T06:12:27;9.40;99.90
57390;DHT22;43217;52.694;6.214;2023-12-29T06:14:53;9.40;99.90
57390;DHT22;43217;52.694;6.214;2023-12-29T06:17:19;9.40;99.90
57390;DHT22;43217;52.694;6.214;2023-12-29T06:19:44;9.40;99.90
57390;DHT22;43217;52.694;6.214;2023-12-29T06:22:10;9.40;99.90
57390;DHT22;43217;52.694;6.214;2023-12-29T06:24:37;9.40;99.90
57390;DHT22;43217;52.694;6.214;2023-12-29T06:27:03;9.40;99.90
57390;DHT22;43217;52.694;6.214;2023-12-29T06:29:29;9.40;99.90
57390;DHT22;43217;52.694;6.214;2023-12-29T06:31:55;9.40;99.90
57390;DHT22;43217;52.694;6.214;2023-12-29T06:34:20;9.40;99.90
57390;DHT22;43217;52.694;6.214;2023-12-29T06:36:46;9.40;99.90
57390;DHT22;43217;52.694;6.214;2023-12-29T06:39:12;9.40;99.90
57390;DHT22;43217;52.694;6.214;2023-12-29T06:41:37;9.40;99.90
57390;DHT22;43217;52.694;6.214;2023-12-29T06:44:03;9.40;99.90
57390;DHT22;43217;52.694;6.214;2023-12-29T06:46:29;9.30;99.90
57390;DHT22;43217;52.694;6.214;2023-12-29T06:48:54;9.40;99.90
57390;DHT22;43217;52.694;6.214;2023-12-29T06:51:20;9.40;99.90
57390;DHT22;43217;52.694;6.214;2023-12-29T06:53:48;9.40;99.90
57390;DHT22;43217;52.694;6.214;2023-12-29T06:56:15;9.40;99.90
57390;DHT22;43217;52.694;6.214;2023-12-29T06:58:41;9.40;99.90
57390;DHT22;43217;52.694;6.214;2023-12-29T07:01:07;9.30;99.90
57390;DHT22;43217;52.694;6.214;2023-12-29T07:03:32;9.30;99.90
57390;DHT22;43217;52.694;6.214;2023-12-29T07:06:00;9.30;99.90
57390;DHT22;43217;52.694;6.214;2023-12-29T07:08:27;9.30;99.90
57390;DHT22;43217;52.694;6.214;2023-12-29T07:10:52;9.30;99.90
57390;DHT22;43217;52.694;6.214;2023-12-29T07:13:18;9.20;99.90
57390;DHT22;43217;52.694;6.214;2023-12-29T07:15:48;9.20;99.90
57390;DHT22;43217;52.694;6.214;2023-12-29T07:18:14;9.30;99.90
57390;DHT22;43217;52.694;6.214;2023-12-29T07:20:41;9.30;99.90
57390;DHT22;43217;52.694;6.214;2023-12-29T07:23:07;9.30;99.90
57390;DHT22;43217;52.694;6.214;2023-12-29T07:25:33;9.30;99.90
57390;DHT22;43217;52.694;6.214;2023-12-29T07:27:58;9.30;99.90
57390;DHT22;43217;52.694;6.214;2023-12-29T07:30:24;9.30;99.90
57390;DHT22;43217;52.694;6.214;2023-12-29T07:32:50;9.30;99.90
57390;DHT22;43217;52.694;6.214;2023-12-29T07:35:16;9.30;99.90
57390;DHT22;43217;52.694;6.214;2023-12-29T07:37:44;9.30;99.90
57390;DHT22;43217;52.694;6.214;2023-12-29T07:40:13;9.40;99.90
57390;DHT22;43217;52.694;6.214;2023-12-29T07:42:40;9.30;99.90
57390;DHT22;43217;52.694;6.214;2023-12-29T07:45:06;9.30;99.90
57390;DHT22;43217;52.694;6.214;2023-12-29T07:47:32;9.40;99.90
57390;DHT22;43217;52.694;6.214;2023-12-29T07:49:58;9.40;99.90
57390;DHT22;43217;52.694;6.214;2023-12-29T07:52:23;9.40;99.90
57390;DHT22;43217;52.694;6.214;2023-12-29T07:54:49;9.40;99.90
57390;DHT22;43217;52.694;6.214;2023-12-29T07:57:15;9.40;99.90
57390;DHT22;43217;52.694;6.214;2023-12-29T07:59:41;9.40;99.90
57390;DHT22;43217;52.694;6.214;2023-12-29T08:02:06;9.40;99.90
57390;DHT22;43217;52.694;6.214;2023-12-29T08:04:32;9.50;99.90
57390;DHT22;43217;52.694;6.214;2023-12-29T08:06:58;9.50;99.90
57390;DHT22;43217;52.694;6.214;2023-12-29T08:09:25;9.50;99.90
57390;DHT22;43217;52.694;6.214;2023-12-29T08:11:51;9.50;99.90
57390;DHT22;43217;52.694;6.214;2023-12-29T08:14:16;9.50;99.90
57390;DHT22;43217;52.694;6.214;2023-12-29T08:16:42;9.50;99.90
57390;DHT22;43217;52.694;6.214;2023-12-29T08:19:08;9.50;99.90
57390;DHT22;43217;52.694;6.214;2023-12-29T08:21:35;9.60;99.90
57390;DHT22;43217;52.694;6.214;2023-12-29T08:24:01;9.60;99.90
57390;DHT22;43217;52.694;6.214;2023-12-29T08:26:27;9.60;99.90
57390;DHT22;43217;52.694;6.214;2023-12-29T08:28:52;9.60;99.90
57390;DHT22;43217;52.694;6.214;2023-12-29T08:31:21;9.60;99.90
57390;DHT22;43217;52.694;6.214;2023-12-29T08:33:48;9.50;99.90
57390;DHT22;43217;52.694;6.214;2023-12-29T08:36:17;9.50;99.90
57390;DHT22;43217;52.694;6.214;2023-12-29T08:38:43;9.50;99.90
57390;DHT22;43217;52.694;6.214;2023-12-29T08:41:08;9.50;99.90
57390;DHT22;43217;52.694;6.214;2023-12-29T08:43:34;9.50;99.90
57390;DHT22;43217;52.694;6.214;2023-12-29T08:46:01;9.50;99.90
57390;DHT22;43217;52.694;6.214;2023-12-29T08:48:27;9.50;99.90
57390;DHT22;43217;52.694;6.214;2023-12-29T08:50:53;9.60;99.90
57390;DHT22;43217;52.694;6.214;2023-12-29T08:53:18;9.60;99.90
57390;DHT22;43217;52.694;6.214;2023-12-29T08:55:44;9.60;99.90
57390;DHT22;43217;52.694;6.214;2023-12-29T08:58:10;9.60;99.90
57390;DHT22;43217;52.694;6.214;2023-12-29T09:00:36;9.60;99.90
57390;DHT22;43217;52.694;6.214;2023-12-29T09:03:01;9.60;99.90
57390;DHT22;43217;52.694;6.214;2023-12-29T09:05:28;9.60;99.90
57390;DHT22;43217;52.694;6.214;2023-12-29T09:07:53;9.60;99.90
57390;DHT22;43217;52.694;6.214;2023-12-29T09:10:19;9.60;99.90
57390;DHT22;43217;52.694;6.214;2023-12-29T09:12:46;9.60;99.90
57390;DHT22;43217;52.694;6.214;2023-12-29T09:15:12;9.60;99.90
57390;DHT22;43217;52.694;6.214;2023-12-29T09:17:38;9.60;99.90
57390;DHT22;43217;52.694;6.214;2023-12-29T09:20:03;9.70;99.90
57390;DHT22;43217;52.694;6.214;2023-12-29T09:22:29;9.70;99.90
57390;DHT22;43217;52.694;6.214;2023-12-29T09:24:55;9.80;99.90
57390;DHT22;43217;52.694;6.214;2023-12-29T09:27:21;9.80;99.90
57390;DHT22;43217;52.694;6.214;2023-12-29T09:29:47;9.80;99.90
57390;DHT22;43217;52.694;6.214;2023-12-29T09:32:12;9.80;99.90
57390;DHT22;43217;52.694;6.214;2023-12-29T09:34:38;9.80;99.90
57390;DHT22;43217;52.694;6.214;2023-12-29T09:37:03;9.80;99.90
57390;DHT22;43217;52.694;6.214;2023-12-29T09:39:29;9.80;99.90
57390;DHT22;43217;52.694;6.214;2023-12-29T09:41:59;9.80;99.90
57390;DHT22;43217;52.694;6.214;2023-12-29T09:44:31;9.80;99.90
57390;DHT22;43217;52.694;6.214;2023-12-29T09:47:01;9.80;99.90
57390;DHT22;43217;52.694;6.214;2023-12-29T09:49:30;9.80;99.90
57390;DHT22;43217;52.694;6.214;2023-12-29T09:51:59;9.80;99.90
57390;DHT22;43217;52.694;6.214;2023-12-29T09:54:25;9.80;99.90
57390;DHT22;43217;52.694;6.214;2023-12-29T09:56:51;9.80;99.90
57390;DHT22;43217;52.694;6.214;2023-12-29T09:59:16;9.70;99.90
57390;DHT22;43217;52.694;6.214;2023-12-29T10:01:45;9.60;99.90
57390;DHT22;43217;52.694;6.214;2023-12-29T10:04:11;9.50;99.90
57390;DHT22;43217;52.694;6.214;2023-12-29T10:06:40;9.40;99.90
57390;DHT22;43217;52.694;6.214;2023-12-29T10:09:10;9.30;99.90
57390;DHT22;43217;52.694;6.214;2023-12-29T10:11:37;9.20;99.90
57390;DHT22;43217;52.694;6.214;2023-12-29T10:14:22;9.10;99.90
57390;DHT22;43217;52.694;6.214;2023-12-29T10:16:53;9.00;99.90
57390;DHT22;43217;52.694;6.214;2023-12-29T10:19:37;8.90;99.90
57390;DHT22;43217;52.694;6.214;2023-12-29T10:24:39;8.60;99.90
57390;DHT22;43217;52.694;6.214;2023-12-29T10:27:07;8.50;99.90
57390;DHT22;43217;52.694;6.214;2023-12-29T10:29:33;8.50;99.90
57390;DHT22;43217;52.694;6.214;2023-12-29T10:31:59;8.40;99.90
57390;DHT22;43217;52.694;6.214;2023-12-29T10:34:25;8.40;99.90
57390;DHT22;43217;52.694;6.214;2023-12-29T10:36:55;8.50;99.90
57390;DHT22;43217;52.694;6.214;2023-12-29T10:39:21;8.50;99.90
57390;DHT22;43217;52.694;6.214;2023-12-29T10:41:46;8.60;99.90
57390;DHT22;43217;52.694;6.214;2023-12-29T10:44:12;8.70;99.90
57390;DHT22;43217;52.694;6.214;2023-12-29T10:46:38;8.80;99.90
57390;DHT22;43217;52.694;6.214;2023-12-29T10:49:12;8.90;99.90
57390;DHT22;43217;52.694;6.214;2023-12-29T10:51:38;9.10;99.90
57390;DHT22;43217;52.694;6.214;2023-12-29T10:54:04;9.10;99.90
57390;DHT22;43217;52.694;6.214;2023-12-29T10:56:33;9.20;99.90
57390;DHT22;43217;52.694;6.214;2023-12-29T10:59:03;9.20;99.90
57390;DHT22;43217;52.694;6.214;2023-12-29T11:01:31;9.30;99.90
57390;DHT22;43217;52.694;6.214;2023-12-29T11:04:06;9.30;99.90
57390;DHT22;43217;52.694;6.214;2023-12-29T11:06:42;9.30;99.90
57390;DHT22;43217;52.694;6.214;2023-12-29T11:09:10;9.40;99.90
57390;DHT22;43217;52.694;6.214;2023-12-29T11:11:37;9.40;99.90
57390;DHT22;43217;52.694;6.214;2023-12-29T11:14:03;9.40;99.90
57390;DHT22;43217;52.694;6.214;2023-12-29T11:16:29;9.50;99.90
57390;DHT22;43217;52.694;6.214;2023-12-29T11:18:58;9.50;99.90
57390;DHT22;43217;52.694;6.214;2023-12-29T11:21:26;9.60;99.90
57390;DHT22;43217;52.694;6.214;2023-12-29T11:23:53;9.60;99.90
57390;DHT22;43217;52.694;6.214;2023-12-29T11:26:19;9.70;99.90
57390;DHT22;43217;52.694;6.214;2023-12-29T11:28:47;9.70;99.90
57390;DHT22;43217;52.694;6.214;2023-12-29T11:31:17;9.70;99.90
57390;DHT22;43217;52.694;6.214;2023-12-29T11:33:46;9.80;99.90
57390;DHT22;43217;52.694;6.214;2023-12-29T11:36:24;9.80;99.90
57390;DHT22;43217;52.694;6.214;2023-12-29T11:42:01;9.80;99.90
57390;DHT22;43217;52.694;6.214;2023-12-29T11:44:27;9.90;99.90
57390;DHT22;43217;52.694;6.214;2023-12-29T11:46:53;9.90;99.90
57390;DHT22;43217;52.694;6.214;2023-12-29T11:49:19;9.90;99.90
57390;DHT22;43217;52.694;6.214;2023-12-29T11:51:49;9.90;99.90
57390;DHT22;43217;52.694;6.214;2023-12-29T11:54:26;10.00;99.90
57390;DHT22;43217;52.694;6.214;2023-12-29T11:56:53;10.00;99.90
57390;DHT22;43217;52.694;6.214;2023-12-29T11:59:20;10.00;99.90
57390;DHT22;43217;52.694;6.214;2023-12-29T12:01:57;10.10;99.90
57390;DHT22;43217;52.694;6.214;2023-12-29T12:04:42;10.10;99.90
57390;DHT22;43217;52.694;6.214;2023-12-29T12:12:46;10.10;99.90
57390;DHT22;43217;52.694;6.214;2023-12-29T12:17:52;10.10;99.90
57390;DHT22;43217;52.694;6.214;2023-12-29T12:20:18;10.00;99.90
57390;DHT22;43217;52.694;6.214;2023-12-29T12:22:44;10.10;99.90
57390;DHT22;43217;52.694;6.214;2023-12-29T12:25:12;10.10;99.90
57390;DHT22;43217;52.694;6.214;2023-12-29T12:27:38;10.10;99.90
57390;DHT22;43217;52.694;6.214;2023-12-29T12:30:04;10.10;99.90
57390;DHT22;43217;52.694;6.214;2023-12-29T12:32:30;10.10;99.90
57390;DHT22;43217;52.694;6.214;2023-12-29T12:34:56;10.20;99.90
57390;DHT22;43217;52.694;6.214;2023-12-29T12:37:29;10.10;99.90
57390;DHT22;43217;52.694;6.214;2023-12-29T12:39:55;10.10;99.90
57390;DHT22;43217;52.694;6.214;2023-12-29T12:42:22;10.20;99.90
57390;DHT22;43217;52.694;6.214;2023-12-29T12:45:04;10.20;99.90
57390;DHT22;43217;52.694;6.214;2023-12-29T12:47:51;10.20;99.90
57390;DHT22;43217;52.694;6.214;2023-12-29T12:50:17;10.10;99.90
57390;DHT22;43217;52.694;6.214;2023-12-29T12:52:43;10.10;99.90
57390;DHT22;43217;52.694;6.214;2023-12-29T12:55:09;10.10;99.90
57390;DHT22;43217;52.694;6.214;2023-12-29T12:57:36;10.10;99.90
57390;DHT22;43217;52.694;6.214;2023-12-29T13:00:03;10.00;99.90
57390;DHT22;43217;52.694;6.214;2023-12-29T13:02:32;10.00;99.90
57390;DHT22;43217;52.694;6.214;2023-12-29T13:04:58;10.00;99.90
57390;DHT22;43217;52.694;6.214;2023-12-29T13:07:24;9.90;99.90
57390;DHT22;43217;52.694;6.214;2023-12-29T13:09:51;9.90;99.90
57390;DHT22;43217;52.694;6.214;2023-12-29T13:12:18;9.90;99.90
57390;DHT22;43217;52.694;6.214;2023-12-29T13:14:44;9.90;99.90
57390;DHT22;43217;52.694;6.214;2023-12-29T13:17:15;10.00;99.90
57390;DHT22;43217;52.694;6.214;2023-12-29T13:19:43;10.00;99.90
57390;DHT22;43217;52.694;6.214;2023-12-29T13:22:11;10.00;99.90
57390;DHT22;43217;52.694;6.214;2023-12-29T13:24:46;10.00;99.90
57390;DHT22;43217;52.694;6.214;2023-12-29T13:27:12;10.00;99.90
57390;DHT22;43217;52.694;6.214;2023-12-29T13:29:39;10.00;99.90
57390;DHT22;43217;52.694;6.214;2023-12-29T13:32:25;10.00;99.90
57390;DHT22;43217;52.694;6.214;2023-12-29T13:35:11;10.00;99.90
57390;DHT22;43217;52.694;6.214;2023-12-29T13:40:23;10.00;99.90
57390;DHT22;43217;52.694;6.214;2023-12-29T13:42:53;10.00;99.90
57390;DHT22;43217;52.694;6.214;2023-12-29T13:45:20;10.00;99.90
57390;DHT22;43217;52.694;6.214;2023-12-29T13:47:46;10.00;99.90
57390;DHT22;43217;52.694;6.214;2023-12-29T13:50:12;9.90;99.90
57390;DHT22;43217;52.694;6.214;2023-12-29T13:52:38;9.90;99.90
57390;DHT22;43217;52.694;6.214;2023-12-29T13:55:04;9.90;99.90
57390;DHT22;43217;52.694;6.214;2023-12-29T13:57:31;9.90;99.90
57390;DHT22;43217;52.694;6.214;2023-12-29T13:59:57;9.90;99.90
57390;DHT22;43217;52.694;6.214;2023-12-29T14:02:36;9.90;99.90
57390;DHT22;43217;52.694;6.214;2023-12-29T14:07:55;9.90;99.90
57390;DHT22;43217;52.694;6.214;2023-12-29T14:10:32;9.90;99.90
57390;DHT22;43217;52.694;6.214;2023-12-29T14:13:08;9.90;99.90
57390;DHT22;43217;52.694;6.214;2023-12-29T14:15:38;9.90;99.90
57390;DHT22;43217;52.694;6.214;2023-12-29T14:20:53;9.80;99.90
57390;DHT22;43217;52.694;6.214;2023-12-29T14:23:19;9.80;99.90
57390;DHT22;43217;52.694;6.214;2023-12-29T14:25:45;9.80;99.90
57390;DHT22;43217;52.694;6.214;2023-12-29T14:28:18;9.80;99.90
57390;DHT22;43217;52.694;6.214;2023-12-29T14:30:44;9.70;99.90
57390;DHT22;43217;52.694;6.214;2023-12-29T14:33:10;9.70;99.90
57390;DHT22;43217;52.694;6.214;2023-12-29T14:35:36;9.70;99.90
57390;DHT22;43217;52.694;6.214;2023-12-29T14:38:02;9.70;99.90
57390;DHT22;43217;52.694;6.214;2023-12-29T14:40:28;9.60;99.90
57390;DHT22;43217;52.694;6.214;2023-12-29T14:42:54;9.60;99.90
57390;DHT22;43217;52.694;6.214;2023-12-29T14:45:20;9.60;99.90
57390;DHT22;43217;52.694;6.214;2023-12-29T14:47:45;9.50;99.90
57390;DHT22;43217;52.694;6.214;2023-12-29T14:50:12;9.50;99.90
57390;DHT22;43217;52.694;6.214;2023-12-29T14:52:38;9.50;99.90
57390;DHT22;43217;52.694;6.214;2023-12-29T14:55:04;9.50;99.90
57390;DHT22;43217;52.694;6.214;2023-12-29T14:57:29;9.50;99.90
57390;DHT22;43217;52.694;6.214;2023-12-29T14:59:55;9.50;99.90
57390;DHT22;43217;52.694;6.214;2023-12-29T15:02:21;9.50;99.90
57390;DHT22;43217;52.694;6.214;2023-12-29T15:04:46;9.50;99.90
57390;DHT22;43217;52.694;6.214;2023-12-29T15:07:14;9.60;99.90
57390;DHT22;43217;52.694;6.214;2023-12-29T15:09:40;9.50;99.90
57390;DHT22;43217;52.694;6.214;2023-12-29T15:12:05;9.60;99.90
57390;DHT22;43217;52.694;6.214;2023-12-29T15:14:31;9.60;99.90
57390;DHT22;43217;52.694;6.214;2023-12-29T15:16:57;9.50;99.90
57390;DHT22;43217;52.694;6.214;2023-12-29T15:19:22;9.50;99.90
57390;DHT22;43217;52.694;6.214;2023-12-29T15:21:48;9.50;99.90
57390;DHT22;43217;52.694;6.214;2023-12-29T15:24:19;9.50;99.90
57390;DHT22;43217;52.694;6.214;2023-12-29T15:26:46;9.50;99.90
57390;DHT22;43217;52.694;6.214;2023-12-29T15:29:12;9.40;99.90
57390;DHT22;43217;52.694;6.214;2023-12-29T15:31:37;9.40;99.90
57390;DHT22;43217;52.694;6.214;2023-12-29T15:34:06;9.30;99.90
57390;DHT22;43217;52.694;6.214;2023-12-29T15:36:32;9.20;99.90
57390;DHT22;43217;52.694;6.214;2023-12-29T15:38:57;9.10;99.90
57390;DHT22;43217;52.694;6.214;2023-12-29T15:41:23;9.10;99.90
57390;DHT22;43217;52.694;6.214;2023-12-29T15:43:49;9.00;99.90
57390;DHT22;43217;52.694;6.214;2023-12-29T15:46:16;9.00;99.90
57390;DHT22;43217;52.694;6.214;2023-12-29T15:48:42;9.00;99.90
57390;DHT22;43217;52.694;6.214;2023-12-29T15:51:08;8.90;99.90
57390;DHT22;43217;52.694;6.214;2023-12-29T15:53:38;8.90;99.90
57390;DHT22;43217;52.694;6.214;2023-12-29T15:56:05;8.90;99.90
57390;DHT22;43217;52.694;6.214;2023-12-29T15:58:31;8.80;99.90
57390;DHT22;43217;52.694;6.214;2023-12-29T16:00:57;8.80;99.90
57390;DHT22;43217;52.694;6.214;2023-12-29T16:03:23;8.80;99.90
57390;DHT22;43217;52.694;6.214;2023-12-29T16:05:48;8.80;99.90
57390;DHT22;43217;52.694;6.214;2023-12-29T16:08:14;8.80;99.90